sensor_id;sensor_type;location;lat;lon;timestamp;P1;durP1;ratioP1;P2;durP2;ratioP2
76098;SDS011;64828;49.956;8.636;2023-04-15T00:00:12;6.50;;;4.30;;
76098;SDS011;64828;49.956;8.636;2023-04-15T00:00:29;6.78;;;4.28;;
76098;SDS011;64828;49.956;8.636;2023-04-15T00:00:45;7.33;;;4.50;;
76098;SDS011;64828;49.956;8.636;2023-04-15T00:01:00;8.68;;;4.72;;
76098;SDS011;64828;49.956;8.636;2023-04-15T00:01:16;8.13;;;4.57;;
76098;SDS011;64828;49.956;8.636;2023-04-15T00:01:33;6.68;;;4.60;;
76098;SDS011;64828;49.956;8.636;2023-04-15T00:01:50;6.50;;;4.30;;
76098;SDS011;64828;49.956;8.636;2023-04-15T00:02:12;6.83;;;4.30;;
76098;SDS011;64828;49.956;8.636;2023-04-15T00:02:32;7.72;;;4.57;;
76098;SDS011;64828;49.956;8.636;2023-04-15T00:02:48;7.85;;;4.43;;
76098;SDS011;64828;49.956;8.636;2023-04-15T00:03:03;7.07;;;4.35;;
76098;SDS011;64828;49.956;8.636;2023-04-15T00:03:20;8.45;;;4.18;;
76098;SDS011;64828;49.956;8.636;2023-04-15T00:03:36;9.00;;;4.20;;
76098;SDS011;64828;49.956;8.636;2023-04-15T00:03:52;8.60;;;4.55;;
76098;SDS011;64828;49.956;8.636;2023-04-15T00:04:09;8.73;;;4.75;;
76098;SDS011;64828;49.956;8.636;2023-04-15T00:04:26;7.63;;;4.28;;
76098;SDS011;64828;49.956;8.636;2023-04-15T00:04:42;8.38;;;4.38;;
76098;SDS011;64828;49.956;8.636;2023-04-15T00:05:01;10.20;;;4.65;;
76098;SDS011;64828;49.956;8.636;2023-04-15T00:05:17;9.25;;;4.75;;
76098;SDS011;64828;49.956;8.636;2023-04-15T00:05:33;7.90;;;4.68;;
76098;SDS011;64828;49.956;8.636;2023-04-15T00:05:49;7.78;;;4.75;;
76098;SDS011;64828;49.956;8.636;2023-04-15T00:06:04;8.20;;;4.80;;
76098;SDS011;64828;49.956;8.636;2023-04-15T00:06:21;9.57;;;4.68;;
76098;SDS011;64828;49.956;8.636;2023-04-15T00:06:36;8.57;;;4.70;;
76098;SDS011;64828;49.956;8.636;2023-04-15T00:06:53;7.97;;;4.63;;
76098;SDS011;64828;49.956;8.636;2023-04-15T00:07:09;7.75;;;4.60;;
76098;SDS011;64828;49.956;8.636;2023-04-15T00:07:25;6.50;;;4.43;;
76098;SDS011;64828;49.956;8.636;2023-04-15T00:07:40;5.97;;;4.13;;
76098;SDS011;64828;49.956;8.636;2023-04-15T00:07:56;5.97;;;4.35;;
76098;SDS011;64828;49.956;8.636;2023-04-15T00:08:12;6.57;;;4.30;;
76098;SDS011;64828;49.956;8.636;2023-04-15T00:08:29;6.97;;;4.13;;
76098;SDS011;64828;49.956;8.636;2023-04-15T00:08:45;7.03;;;4.45;;
76098;SDS011;64828;49.956;8.636;2023-04-15T00:09:01;7.00;;;4.43;;
76098;SDS011;64828;49.956;8.636;2023-04-15T00:09:18;7.72;;;4.45;;
76098;SDS011;64828;49.956;8.636;2023-04-15T00:09:34;7.88;;;4.43;;
76098;SDS011;64828;49.956;8.636;2023-04-15T00:09:50;7.68;;;4.60;;
76098;SDS011;64828;49.956;8.636;2023-04-15T00:10:09;6.25;;;4.30;;
76098;SDS011;64828;49.956;8.636;2023-04-15T00:10:25;6.18;;;4.00;;
76098;SDS011;64828;49.956;8.636;2023-04-15T00:10:41;7.43;;;4.20;;
76098;SDS011;64828;49.956;8.636;2023-04-15T00:10:58;7.47;;;4.22;;
76098;SDS011;64828;49.956;8.636;2023-04-15T00:11:19;6.93;;;4.25;;
76098;SDS011;64828;49.956;8.636;2023-04-15T00:11:35;6.95;;;4.40;;
76098;SDS011;64828;49.956;8.636;2023-04-15T00:11:50;6.47;;;4.18;;
76098;SDS011;64828;49.956;8.636;2023-04-15T00:12:06;9.57;;;4.40;;
76098;SDS011;64828;49.956;8.636;2023-04-15T00:12:23;10.30;;;4.47;;
76098;SDS011;64828;49.956;8.636;2023-04-15T00:12:39;7.07;;;4.28;;
76098;SDS011;64828;49.956;8.636;2023-04-15T00:12:55;6.33;;;4.23;;
76098;SDS011;64828;49.956;8.636;2023-04-15T00:13:11;6.95;;;4.25;;
76098;SDS011;64828;49.956;8.636;2023-04-15T00:13:27;7.65;;;4.43;;
76098;SDS011;64828;49.956;8.636;2023-04-15T00:13:42;7.57;;;4.60;;
76098;SDS011;64828;49.956;8.636;2023-04-15T00:13:58;8.93;;;4.73;;
76098;SDS011;64828;49.956;8.636;2023-04-15T00:14:14;8.85;;;4.55;;
76098;SDS011;64828;49.956;8.636;2023-04-15T00:14:30;7.30;;;4.40;;
76098;SDS011;64828;49.956;8.636;2023-04-15T00:14:46;6.70;;;4.20;;
76098;SDS011;64828;49.956;8.636;2023-04-15T00:15:01;5.95;;;3.83;;
76098;SDS011;64828;49.956;8.636;2023-04-15T00:15:18;5.93;;;3.85;;
76098;SDS011;64828;49.956;8.636;2023-04-15T00:15:34;6.18;;;4.10;;
76098;SDS011;64828;49.956;8.636;2023-04-15T00:15:49;6.63;;;4.27;;
76098;SDS011;64828;49.956;8.636;2023-04-15T00:16:05;6.28;;;4.30;;
76098;SDS011;64828;49.956;8.636;2023-04-15T00:16:22;7.20;;;4.10;;
76098;SDS011;64828;49.956;8.636;2023-04-15T00:16:38;7.33;;;4.40;;
76098;SDS011;64828;49.956;8.636;2023-04-15T00:16:54;6.95;;;4.50;;
76098;SDS011;64828;49.956;8.636;2023-04-15T00:17:11;6.15;;;4.22;;
76098;SDS011;64828;49.956;8.636;2023-04-15T00:17:27;6.63;;;4.15;;
76098;SDS011;64828;49.956;8.636;2023-04-15T00:17:42;8.07;;;4.28;;
76098;SDS011;64828;49.956;8.636;2023-04-15T00:17:58;6.73;;;4.13;;
76098;SDS011;64828;49.956;8.636;2023-04-15T00:18:13;6.22;;;4.10;;
76098;SDS011;64828;49.956;8.636;2023-04-15T00:18:29;6.33;;;4.10;;
76098;SDS011;64828;49.956;8.636;2023-04-15T00:18:45;6.70;;;3.97;;
76098;SDS011;64828;49.956;8.636;2023-04-15T00:19:01;7.65;;;4.00;;
76098;SDS011;64828;49.956;8.636;2023-04-15T00:19:16;6.63;;;4.10;;
76098;SDS011;64828;49.956;8.636;2023-04-15T00:19:32;6.38;;;4.22;;
76098;SDS011;64828;49.956;8.636;2023-04-15T00:19:48;6.77;;;4.27;;
76098;SDS011;64828;49.956;8.636;2023-04-15T00:20:04;7.72;;;4.30;;
76098;SDS011;64828;49.956;8.636;2023-04-15T00:20:23;6.93;;;3.97;;
76098;SDS011;64828;49.956;8.636;2023-04-15T00:20:39;7.15;;;4.53;;
76098;SDS011;64828;49.956;8.636;2023-04-15T00:20:55;7.72;;;4.90;;
76098;SDS011;64828;49.956;8.636;2023-04-15T00:21:11;8.00;;;4.53;;
76098;SDS011;64828;49.956;8.636;2023-04-15T00:21:26;6.65;;;4.30;;
76098;SDS011;64828;49.956;8.636;2023-04-15T00:21:42;6.78;;;4.57;;
76098;SDS011;64828;49.956;8.636;2023-04-15T00:21:58;7.77;;;4.70;;
76098;SDS011;64828;49.956;8.636;2023-04-15T00:22:14;7.00;;;4.68;;
76098;SDS011;64828;49.956;8.636;2023-04-15T00:22:31;6.32;;;4.65;;
76098;SDS011;64828;49.956;8.636;2023-04-15T00:22:46;6.75;;;4.57;;
76098;SDS011;64828;49.956;8.636;2023-04-15T00:23:02;6.70;;;4.50;;
76098;SDS011;64828;49.956;8.636;2023-04-15T00:23:19;7.57;;;4.38;;
76098;SDS011;64828;49.956;8.636;2023-04-15T00:23:35;8.40;;;4.43;;
76098;SDS011;64828;49.956;8.636;2023-04-15T00:23:50;8.23;;;4.60;;
76098;SDS011;64828;49.956;8.636;2023-04-15T00:24:07;7.18;;;4.43;;
76098;SDS011;64828;49.956;8.636;2023-04-15T00:24:23;6.85;;;4.32;;
76098;SDS011;64828;49.956;8.636;2023-04-15T00:24:38;7.18;;;4.40;;
76098;SDS011;64828;49.956;8.636;2023-04-15T00:24:54;7.60;;;4.50;;
76098;SDS011;64828;49.956;8.636;2023-04-15T00:25:10;6.80;;;4.57;;
76098;SDS011;64828;49.956;8.636;2023-04-15T00:25:25;8.68;;;4.65;;
76098;SDS011;64828;49.956;8.636;2023-04-15T00:25:41;8.53;;;4.57;;
76098;SDS011;64828;49.956;8.636;2023-04-15T00:25:57;6.78;;;4.70;;
76098;SDS011;64828;49.956;8.636;2023-04-15T00:26:12;7.80;;;4.65;;
76098;SDS011;64828;49.956;8.636;2023-04-15T00:26:28;7.60;;;4.40;;
76098;SDS011;64828;49.956;8.636;2023-04-15T00:26:43;6.47;;;4.10;;
76098;SDS011;64828;49.956;8.636;2023-04-15T00:26:59;6.90;;;4.13;;
76098;SDS011;64828;49.956;8.636;2023-04-15T00:27:15;7.88;;;4.50;;
76098;SDS011;64828;49.956;8.636;2023-04-15T00:27:30;7.13;;;4.37;;
76098;SDS011;64828;49.956;8.636;2023-04-15T00:27:46;7.60;;;4.32;;
76098;SDS011;64828;49.956;8.636;2023-04-15T00:28:01;8.27;;;4.75;;
76098;SDS011;64828;49.956;8.636;2023-04-15T00:28:17;7.50;;;4.63;;
76098;SDS011;64828;49.956;8.636;2023-04-15T00:28:33;7.10;;;4.87;;
76098;SDS011;64828;49.956;8.636;2023-04-15T00:28:49;7.22;;;4.88;;
76098;SDS011;64828;49.956;8.636;2023-04-15T00:29:04;7.30;;;4.72;;
76098;SDS011;64828;49.956;8.636;2023-04-15T00:29:20;8.20;;;4.93;;
76098;SDS011;64828;49.956;8.636;2023-04-15T00:29:36;8.55;;;5.03;;
76098;SDS011;64828;49.956;8.636;2023-04-15T00:29:51;7.68;;;5.15;;
76098;SDS011;64828;49.956;8.636;2023-04-15T00:30:07;8.13;;;5.20;;
76098;SDS011;64828;49.956;8.636;2023-04-15T00:30:23;7.88;;;5.15;;
76098;SDS011;64828;49.956;8.636;2023-04-15T00:30:39;8.77;;;5.63;;
76098;SDS011;64828;49.956;8.636;2023-04-15T00:30:55;8.93;;;5.40;;
76098;SDS011;64828;49.956;8.636;2023-04-15T00:31:11;7.88;;;5.20;;
76098;SDS011;64828;49.956;8.636;2023-04-15T00:31:27;8.15;;;5.80;;
76098;SDS011;64828;49.956;8.636;2023-04-15T00:31:44;8.25;;;5.70;;
76098;SDS011;64828;49.956;8.636;2023-04-15T00:32:00;8.75;;;5.85;;
76098;SDS011;64828;49.956;8.636;2023-04-15T00:32:15;10.27;;;6.40;;
76098;SDS011;64828;49.956;8.636;2023-04-15T00:32:31;10.55;;;6.25;;
76098;SDS011;64828;49.956;8.636;2023-04-15T00:32:46;12.10;;;6.30;;
76098;SDS011;64828;49.956;8.636;2023-04-15T00:33:03;10.77;;;6.22;;
76098;SDS011;64828;49.956;8.636;2023-04-15T00:33:18;9.38;;;6.10;;
76098;SDS011;64828;49.956;8.636;2023-04-15T00:33:34;10.33;;;6.27;;
76098;SDS011;64828;49.956;8.636;2023-04-15T00:33:50;10.85;;;6.20;;
76098;SDS011;64828;49.956;8.636;2023-04-15T00:34:06;10.17;;;5.97;;
76098;SDS011;64828;49.956;8.636;2023-04-15T00:34:22;8.73;;;5.82;;
76098;SDS011;64828;49.956;8.636;2023-04-15T00:34:38;9.05;;;5.90;;
76098;SDS011;64828;49.956;8.636;2023-04-15T00:34:53;9.73;;;5.82;;
76098;SDS011;64828;49.956;8.636;2023-04-15T00:35:09;10.27;;;5.90;;
76098;SDS011;64828;49.956;8.636;2023-04-15T00:35:25;9.52;;;5.97;;
76098;SDS011;64828;49.956;8.636;2023-04-15T00:35:41;8.50;;;5.70;;
76098;SDS011;64828;49.956;8.636;2023-04-15T00:35:56;10.05;;;5.93;;
76098;SDS011;64828;49.956;8.636;2023-04-15T00:36:12;10.10;;;6.10;;
76098;SDS011;64828;49.956;8.636;2023-04-15T00:36:28;8.73;;;5.70;;
76098;SDS011;64828;49.956;8.636;2023-04-15T00:36:44;10.50;;;5.88;;
76098;SDS011;64828;49.956;8.636;2023-04-15T00:37:00;11.48;;;6.00;;
76098;SDS011;64828;49.956;8.636;2023-04-15T00:37:15;10.95;;;5.93;;
76098;SDS011;64828;49.956;8.636;2023-04-15T00:37:31;9.07;;;5.83;;
76098;SDS011;64828;49.956;8.636;2023-04-15T00:37:49;8.63;;;5.63;;
76098;SDS011;64828;49.956;8.636;2023-04-15T00:38:05;9.02;;;5.80;;
76098;SDS011;64828;49.956;8.636;2023-04-15T00:38:22;8.45;;;6.07;;
76098;SDS011;64828;49.956;8.636;2023-04-15T00:38:37;8.00;;;5.70;;
76098;SDS011;64828;49.956;8.636;2023-04-15T00:38:53;7.67;;;5.37;;
76098;SDS011;64828;49.956;8.636;2023-04-15T00:39:08;8.30;;;5.40;;
76098;SDS011;64828;49.956;8.636;2023-04-15T00:39:24;9.43;;;5.60;;
76098;SDS011;64828;49.956;8.636;2023-04-15T00:39:40;9.55;;;5.68;;
76098;SDS011;64828;49.956;8.636;2023-04-15T00:39:55;8.77;;;5.70;;
76098;SDS011;64828;49.956;8.636;2023-04-15T00:40:11;9.43;;;6.13;;
76098;SDS011;64828;49.956;8.636;2023-04-15T00:40:27;10.77;;;5.90;;
76098;SDS011;64828;49.956;8.636;2023-04-15T00:40:43;9.70;;;5.70;;
76098;SDS011;64828;49.956;8.636;2023-04-15T00:40:59;9.65;;;5.80;;
76098;SDS011;64828;49.956;8.636;2023-04-15T00:41:15;9.23;;;5.90;;
76098;SDS011;64828;49.956;8.636;2023-04-15T00:41:33;8.85;;;5.88;;
76098;SDS011;64828;49.956;8.636;2023-04-15T00:41:49;8.98;;;5.75;;
76098;SDS011;64828;49.956;8.636;2023-04-15T00:42:04;9.23;;;5.82;;
76098;SDS011;64828;49.956;8.636;2023-04-15T00:42:20;9.43;;;6.07;;
76098;SDS011;64828;49.956;8.636;2023-04-15T00:42:36;11.40;;;5.93;;
76098;SDS011;64828;49.956;8.636;2023-04-15T00:42:53;9.93;;;5.50;;
76098;SDS011;64828;49.956;8.636;2023-04-15T00:43:09;9.50;;;5.68;;
76098;SDS011;64828;49.956;8.636;2023-04-15T00:43:24;10.45;;;6.03;;
76098;SDS011;64828;49.956;8.636;2023-04-15T00:43:40;10.53;;;5.60;;
76098;SDS011;64828;49.956;8.636;2023-04-15T00:43:57;9.30;;;5.15;;
76098;SDS011;64828;49.956;8.636;2023-04-15T00:44:13;8.48;;;5.30;;
76098;SDS011;64828;49.956;8.636;2023-04-15T00:44:29;7.82;;;5.32;;
76098;SDS011;64828;49.956;8.636;2023-04-15T00:44:45;8.35;;;5.57;;
76098;SDS011;64828;49.956;8.636;2023-04-15T00:45:00;9.93;;;5.95;;
76098;SDS011;64828;49.956;8.636;2023-04-15T00:45:16;11.38;;;6.30;;
76098;SDS011;64828;49.956;8.636;2023-04-15T00:45:33;12.02;;;5.97;;
76098;SDS011;64828;49.956;8.636;2023-04-15T00:45:48;10.60;;;5.90;;
76098;SDS011;64828;49.956;8.636;2023-04-15T00:46:08;10.57;;;5.65;;
76098;SDS011;64828;49.956;8.636;2023-04-15T00:46:28;9.88;;;5.53;;
76098;SDS011;64828;49.956;8.636;2023-04-15T00:46:47;12.07;;;5.97;;
76098;SDS011;64828;49.956;8.636;2023-04-15T00:47:05;11.30;;;6.15;;
76098;SDS011;64828;49.956;8.636;2023-04-15T00:47:22;8.50;;;6.15;;
76098;SDS011;64828;49.956;8.636;2023-04-15T00:47:39;11.48;;;6.60;;
76098;SDS011;64828;49.956;8.636;2023-04-15T00:47:57;12.40;;;6.80;;
76098;SDS011;64828;49.956;8.636;2023-04-15T00:48:13;9.50;;;6.60;;
76098;SDS011;64828;49.956;8.636;2023-04-15T00:48:30;10.63;;;6.78;;
76098;SDS011;64828;49.956;8.636;2023-04-15T00:48:46;12.77;;;6.80;;
76098;SDS011;64828;49.956;8.636;2023-04-15T00:49:03;13.57;;;6.75;;
76098;SDS011;64828;49.956;8.636;2023-04-15T00:49:20;11.52;;;6.78;;
76098;SDS011;64828;49.956;8.636;2023-04-15T00:49:36;11.00;;;7.00;;
76098;SDS011;64828;49.956;8.636;2023-04-15T00:49:52;11.10;;;7.37;;
76098;SDS011;64828;49.956;8.636;2023-04-15T00:50:08;10.05;;;7.03;;
76098;SDS011;64828;49.956;8.636;2023-04-15T00:50:25;10.88;;;7.07;;
76098;SDS011;64828;49.956;8.636;2023-04-15T00:50:40;11.55;;;7.15;;
76098;SDS011;64828;49.956;8.636;2023-04-15T00:50:56;11.43;;;7.10;;
76098;SDS011;64828;49.956;8.636;2023-04-15T00:51:12;12.43;;;7.35;;
76098;SDS011;64828;49.956;8.636;2023-04-15T00:51:28;12.85;;;7.72;;
76098;SDS011;64828;49.956;8.636;2023-04-15T00:51:45;12.05;;;7.60;;
76098;SDS011;64828;49.956;8.636;2023-04-15T00:52:02;10.73;;;7.05;;
76098;SDS011;64828;49.956;8.636;2023-04-15T00:52:18;10.25;;;6.70;;
76098;SDS011;64828;49.956;8.636;2023-04-15T00:52:33;10.20;;;6.50;;
76098;SDS011;64828;49.956;8.636;2023-04-15T00:52:50;10.38;;;6.30;;
76098;SDS011;64828;49.956;8.636;2023-04-15T00:53:05;9.63;;;6.03;;
76098;SDS011;64828;49.956;8.636;2023-04-15T00:53:21;10.20;;;6.00;;
76098;SDS011;64828;49.956;8.636;2023-04-15T00:53:37;10.80;;;6.35;;
76098;SDS011;64828;49.956;8.636;2023-04-15T00:53:52;10.15;;;6.60;;
76098;SDS011;64828;49.956;8.636;2023-04-15T00:54:08;9.63;;;6.80;;
76098;SDS011;64828;49.956;8.636;2023-04-15T00:54:24;8.70;;;6.40;;
76098;SDS011;64828;49.956;8.636;2023-04-15T00:54:40;9.18;;;6.10;;
76098;SDS011;64828;49.956;8.636;2023-04-15T00:54:56;9.80;;;6.13;;
76098;SDS011;64828;49.956;8.636;2023-04-15T00:55:11;10.10;;;6.18;;
76098;SDS011;64828;49.956;8.636;2023-04-15T00:55:27;9.63;;;6.30;;
76098;SDS011;64828;49.956;8.636;2023-04-15T00:55:43;10.90;;;6.57;;
76098;SDS011;64828;49.956;8.636;2023-04-15T00:55:59;10.95;;;6.40;;
76098;SDS011;64828;49.956;8.636;2023-04-15T00:56:14;10.40;;;6.20;;
76098;SDS011;64828;49.956;8.636;2023-04-15T00:56:30;10.23;;;6.03;;
76098;SDS011;64828;49.956;8.636;2023-04-15T00:56:51;10.57;;;5.90;;
76098;SDS011;64828;49.956;8.636;2023-04-15T00:57:07;10.50;;;6.20;;
76098;SDS011;64828;49.956;8.636;2023-04-15T00:57:23;8.98;;;5.78;;
76098;SDS011;64828;49.956;8.636;2023-04-15T00:57:40;8.43;;;5.60;;
76098;SDS011;64828;49.956;8.636;2023-04-15T00:57:56;8.90;;;5.90;;
76098;SDS011;64828;49.956;8.636;2023-04-15T00:58:11;8.40;;;5.82;;
76098;SDS011;64828;49.956;8.636;2023-04-15T00:58:27;8.70;;;5.53;;
76098;SDS011;64828;49.956;8.636;2023-04-15T00:58:43;10.17;;;5.70;;
76098;SDS011;64828;49.956;8.636;2023-04-15T00:58:58;10.75;;;6.18;;
76098;SDS011;64828;49.956;8.636;2023-04-15T00:59:16;9.40;;;6.03;;
76098;SDS011;64828;49.956;8.636;2023-04-15T00:59:32;9.25;;;5.80;;
76098;SDS011;64828;49.956;8.636;2023-04-15T00:59:49;10.45;;;5.85;;
76098;SDS011;64828;49.956;8.636;2023-04-15T01:00:06;11.10;;;5.90;;
76098;SDS011;64828;49.956;8.636;2023-04-15T01:00:23;11.15;;;6.00;;
76098;SDS011;64828;49.956;8.636;2023-04-15T01:00:39;12.65;;;6.70;;
76098;SDS011;64828;49.956;8.636;2023-04-15T01:00:56;11.48;;;6.70;;
76098;SDS011;64828;49.956;8.636;2023-04-15T01:01:13;8.82;;;6.07;;
76098;SDS011;64828;49.956;8.636;2023-04-15T01:01:29;9.90;;;6.00;;
76098;SDS011;64828;49.956;8.636;2023-04-15T01:01:45;10.63;;;5.97;;
76098;SDS011;64828;49.956;8.636;2023-04-15T01:02:01;9.00;;;5.60;;
76098;SDS011;64828;49.956;8.636;2023-04-15T01:02:17;10.20;;;6.07;;
76098;SDS011;64828;49.956;8.636;2023-04-15T01:02:33;10.38;;;6.22;;
76098;SDS011;64828;49.956;8.636;2023-04-15T01:02:50;11.27;;;6.00;;
76098;SDS011;64828;49.956;8.636;2023-04-15T01:03:06;11.75;;;6.20;;
76098;SDS011;64828;49.956;8.636;2023-04-15T01:03:22;10.07;;;6.07;;
76098;SDS011;64828;49.956;8.636;2023-04-15T01:03:38;10.37;;;6.03;;
76098;SDS011;64828;49.956;8.636;2023-04-15T01:03:55;12.35;;;6.30;;
76098;SDS011;64828;49.956;8.636;2023-04-15T01:04:12;12.35;;;6.43;;
76098;SDS011;64828;49.956;8.636;2023-04-15T01:04:29;11.98;;;7.03;;
76098;SDS011;64828;49.956;8.636;2023-04-15T01:04:45;12.18;;;7.63;;
76098;SDS011;64828;49.956;8.636;2023-04-15T01:05:02;11.93;;;7.97;;
76098;SDS011;64828;49.956;8.636;2023-04-15T01:05:18;13.25;;;8.43;;
76098;SDS011;64828;49.956;8.636;2023-04-15T01:05:34;14.38;;;8.88;;
76098;SDS011;64828;49.956;8.636;2023-04-15T01:05:50;13.13;;;8.35;;
76098;SDS011;64828;49.956;8.636;2023-04-15T01:06:12;13.18;;;8.27;;
76098;SDS011;64828;49.956;8.636;2023-04-15T01:06:28;15.88;;;8.60;;
76098;SDS011;64828;49.956;8.636;2023-04-15T01:06:46;17.52;;;9.23;;
76098;SDS011;64828;49.956;8.636;2023-04-15T01:07:01;16.38;;;8.93;;
76098;SDS011;64828;49.956;8.636;2023-04-15T01:07:17;14.32;;;8.50;;
76098;SDS011;64828;49.956;8.636;2023-04-15T01:07:33;14.73;;;8.65;;
76098;SDS011;64828;49.956;8.636;2023-04-15T01:07:49;17.07;;;9.00;;
76098;SDS011;64828;49.956;8.636;2023-04-15T01:08:04;14.32;;;8.65;;
76098;SDS011;64828;49.956;8.636;2023-04-15T01:08:20;11.95;;;8.30;;
76098;SDS011;64828;49.956;8.636;2023-04-15T01:08:36;11.10;;;8.00;;
76098;SDS011;64828;49.956;8.636;2023-04-15T01:08:52;11.60;;;8.20;;
76098;SDS011;64828;49.956;8.636;2023-04-15T01:09:09;13.55;;;8.77;;
76098;SDS011;64828;49.956;8.636;2023-04-15T01:09:25;14.45;;;8.77;;
76098;SDS011;64828;49.956;8.636;2023-04-15T01:09:41;14.68;;;8.98;;
76098;SDS011;64828;49.956;8.636;2023-04-15T01:09:57;14.73;;;8.90;;
76098;SDS011;64828;49.956;8.636;2023-04-15T01:10:13;13.80;;;8.52;;
76098;SDS011;64828;49.956;8.636;2023-04-15T01:10:29;13.02;;;8.30;;
76098;SDS011;64828;49.956;8.636;2023-04-15T01:10:45;12.73;;;8.10;;
76098;SDS011;64828;49.956;8.636;2023-04-15T01:11:01;12.75;;;8.27;;
76098;SDS011;64828;49.956;8.636;2023-04-15T01:11:18;13.70;;;8.70;;
76098;SDS011;64828;49.956;8.636;2023-04-15T01:11:34;14.55;;;8.77;;
76098;SDS011;64828;49.956;8.636;2023-04-15T01:11:50;15.40;;;9.10;;
76098;SDS011;64828;49.956;8.636;2023-04-15T01:12:06;17.02;;;9.50;;
76098;SDS011;64828;49.956;8.636;2023-04-15T01:12:25;14.43;;;9.05;;
76098;SDS011;64828;49.956;8.636;2023-04-15T01:12:42;12.10;;;8.60;;
76098;SDS011;64828;49.956;8.636;2023-04-15T01:12:58;12.75;;;8.55;;
76098;SDS011;64828;49.956;8.636;2023-04-15T01:13:14;13.87;;;8.57;;
76098;SDS011;64828;49.956;8.636;2023-04-15T01:13:29;14.15;;;9.00;;
76098;SDS011;64828;49.956;8.636;2023-04-15T01:13:48;13.63;;;9.30;;
76098;SDS011;64828;49.956;8.636;2023-04-15T01:14:06;14.10;;;9.07;;
76098;SDS011;64828;49.956;8.636;2023-04-15T01:14:23;14.52;;;8.55;;
76098;SDS011;64828;49.956;8.636;2023-04-15T01:14:39;14.45;;;8.65;;
76098;SDS011;64828;49.956;8.636;2023-04-15T01:14:55;14.48;;;8.60;;
76098;SDS011;64828;49.956;8.636;2023-04-15T01:15:11;14.25;;;8.18;;
76098;SDS011;64828;49.956;8.636;2023-04-15T01:15:26;13.50;;;8.07;;
76098;SDS011;64828;49.956;8.636;2023-04-15T01:15:42;12.43;;;8.60;;
76098;SDS011;64828;49.956;8.636;2023-04-15T01:15:58;12.15;;;8.82;;
76098;SDS011;64828;49.956;8.636;2023-04-15T01:16:15;13.50;;;8.55;;
76098;SDS011;64828;49.956;8.636;2023-04-15T01:16:33;14.23;;;8.30;;
76098;SDS011;64828;49.956;8.636;2023-04-15T01:16:49;13.87;;;8.37;;
76098;SDS011;64828;49.956;8.636;2023-04-15T01:17:04;13.25;;;8.35;;
76098;SDS011;64828;49.956;8.636;2023-04-15T01:17:21;11.70;;;8.02;;
76098;SDS011;64828;49.956;8.636;2023-04-15T01:17:39;11.43;;;8.30;;
76098;SDS011;64828;49.956;8.636;2023-04-15T01:17:54;13.02;;;8.23;;
76098;SDS011;64828;49.956;8.636;2023-04-15T01:18:13;14.48;;;8.13;;
76098;SDS011;64828;49.956;8.636;2023-04-15T01:18:29;15.10;;;8.43;;
76098;SDS011;64828;49.956;8.636;2023-04-15T01:18:45;15.77;;;8.20;;
76098;SDS011;64828;49.956;8.636;2023-04-15T01:19:01;16.60;;;8.35;;
76098;SDS011;64828;49.956;8.636;2023-04-15T01:19:17;14.48;;;8.05;;
76098;SDS011;64828;49.956;8.636;2023-04-15T01:19:35;11.75;;;8.05;;
76098;SDS011;64828;49.956;8.636;2023-04-15T01:19:51;12.07;;;7.97;;
76098;SDS011;64828;49.956;8.636;2023-04-15T01:20:09;13.73;;;8.35;;
76098;SDS011;64828;49.956;8.636;2023-04-15T01:20:26;14.18;;;8.23;;
76098;SDS011;64828;49.956;8.636;2023-04-15T01:20:43;16.55;;;8.25;;
76098;SDS011;64828;49.956;8.636;2023-04-15T01:21:00;16.05;;;8.57;;
76098;SDS011;64828;49.956;8.636;2023-04-15T01:21:17;11.52;;;8.20;;
76098;SDS011;64828;49.956;8.636;2023-04-15T01:21:36;12.15;;;8.07;;
76098;SDS011;64828;49.956;8.636;2023-04-15T01:21:53;11.55;;;7.63;;
76098;SDS011;64828;49.956;8.636;2023-04-15T01:22:10;12.57;;;7.90;;
76098;SDS011;64828;49.956;8.636;2023-04-15T01:22:26;11.95;;;7.70;;
76098;SDS011;64828;49.956;8.636;2023-04-15T01:22:42;12.20;;;7.53;;
76098;SDS011;64828;49.956;8.636;2023-04-15T01:22:59;12.27;;;7.75;;
76098;SDS011;64828;49.956;8.636;2023-04-15T01:23:15;13.13;;;7.82;;
76098;SDS011;64828;49.956;8.636;2023-04-15T01:23:31;13.25;;;8.02;;
76098;SDS011;64828;49.956;8.636;2023-04-15T01:23:51;12.95;;;8.13;;
76098;SDS011;64828;49.956;8.636;2023-04-15T01:24:10;12.60;;;8.05;;
76098;SDS011;64828;49.956;8.636;2023-04-15T01:24:32;12.25;;;8.27;;
76098;SDS011;64828;49.956;8.636;2023-04-15T01:24:54;14.25;;;8.45;;
76098;SDS011;64828;49.956;8.636;2023-04-15T01:25:19;12.82;;;8.00;;
76098;SDS011;64828;49.956;8.636;2023-04-15T01:25:47;14.48;;;8.82;;
76098;SDS011;64828;49.956;8.636;2023-04-15T01:26:05;13.90;;;8.25;;
76098;SDS011;64828;49.956;8.636;2023-04-15T01:26:23;13.57;;;8.07;;
76098;SDS011;64828;49.956;8.636;2023-04-15T01:26:39;12.18;;;7.95;;
76098;SDS011;64828;49.956;8.636;2023-04-15T01:26:55;13.30;;;8.45;;
76098;SDS011;64828;49.956;8.636;2023-04-15T01:27:11;15.80;;;8.50;;
76098;SDS011;64828;49.956;8.636;2023-04-15T01:27:27;15.80;;;8.93;;
76098;SDS011;64828;49.956;8.636;2023-04-15T01:27:42;15.13;;;9.18;;
76098;SDS011;64828;49.956;8.636;2023-04-15T01:27:58;15.02;;;9.25;;
76098;SDS011;64828;49.956;8.636;2023-04-15T01:28:14;16.38;;;9.10;;
76098;SDS011;64828;49.956;8.636;2023-04-15T01:28:30;15.88;;;9.15;;
76098;SDS011;64828;49.956;8.636;2023-04-15T01:28:46;15.07;;;9.80;;
76098;SDS011;64828;49.956;8.636;2023-04-15T01:29:02;14.73;;;9.73;;
76098;SDS011;64828;49.956;8.636;2023-04-15T01:29:18;14.02;;;9.43;;
76098;SDS011;64828;49.956;8.636;2023-04-15T01:29:35;15.80;;;9.33;;
76098;SDS011;64828;49.956;8.636;2023-04-15T01:29:52;15.45;;;8.93;;
76098;SDS011;64828;49.956;8.636;2023-04-15T01:30:08;13.90;;;8.60;;
76098;SDS011;64828;49.956;8.636;2023-04-15T01:30:25;13.63;;;8.68;;
76098;SDS011;64828;49.956;8.636;2023-04-15T01:30:41;16.05;;;9.02;;
76098;SDS011;64828;49.956;8.636;2023-04-15T01:31:13;16.25;;;8.73;;
76098;SDS011;64828;49.956;8.636;2023-04-15T01:31:29;12.43;;;8.35;;
76098;SDS011;64828;49.956;8.636;2023-04-15T01:31:49;12.90;;;8.60;;
76098;SDS011;64828;49.956;8.636;2023-04-15T01:32:09;13.45;;;8.45;;
76098;SDS011;64828;49.956;8.636;2023-04-15T01:32:25;12.60;;;8.70;;
76098;SDS011;64828;49.956;8.636;2023-04-15T01:32:41;12.48;;;8.85;;
76098;SDS011;64828;49.956;8.636;2023-04-15T01:32:57;13.32;;;8.90;;
76098;SDS011;64828;49.956;8.636;2023-04-15T01:33:13;15.98;;;9.00;;
76098;SDS011;64828;49.956;8.636;2023-04-15T01:33:29;15.13;;;8.97;;
76098;SDS011;64828;49.956;8.636;2023-04-15T01:33:44;14.00;;;8.82;;
76098;SDS011;64828;49.956;8.636;2023-04-15T01:34:00;14.85;;;8.85;;
76098;SDS011;64828;49.956;8.636;2023-04-15T01:34:16;13.13;;;8.75;;
76098;SDS011;64828;49.956;8.636;2023-04-15T01:34:32;14.45;;;8.82;;
76098;SDS011;64828;49.956;8.636;2023-04-15T01:34:47;14.73;;;8.93;;
76098;SDS011;64828;49.956;8.636;2023-04-15T01:35:03;12.48;;;8.70;;
76098;SDS011;64828;49.956;8.636;2023-04-15T01:35:19;12.88;;;8.60;;
76098;SDS011;64828;49.956;8.636;2023-04-15T01:35:35;13.32;;;8.40;;
76098;SDS011;64828;49.956;8.636;2023-04-15T01:35:51;15.48;;;8.52;;
76098;SDS011;64828;49.956;8.636;2023-04-15T01:36:07;15.43;;;8.73;;
76098;SDS011;64828;49.956;8.636;2023-04-15T01:36:24;15.32;;;8.88;;
76098;SDS011;64828;49.956;8.636;2023-04-15T01:36:40;15.20;;;9.27;;
76098;SDS011;64828;49.956;8.636;2023-04-15T01:36:55;14.70;;;9.17;;
76098;SDS011;64828;49.956;8.636;2023-04-15T01:37:11;14.32;;;8.40;;
76098;SDS011;64828;49.956;8.636;2023-04-15T01:37:27;13.95;;;8.07;;
76098;SDS011;64828;49.956;8.636;2023-04-15T01:37:44;14.60;;;8.45;;
76098;SDS011;64828;49.956;8.636;2023-04-15T01:38:06;14.60;;;8.63;;
76098;SDS011;64828;49.956;8.636;2023-04-15T01:38:23;12.93;;;7.95;;